sensor_id;sensor_type;location;lat;lon;timestamp;temperature;humidity
13049;DHT22;6591;51.446;5.404;2023-06-19T00:02:00;23.90;66.60
13049;DHT22;6591;51.446;5.404;2023-06-19T00:04:28;23.30;66.60
13049;DHT22;6591;51.446;5.404;2023-06-19T00:06:55;23.80;66.90
13049;DHT22;6591;51.446;5.404;2023-06-19T00:09:22;23.70;67.00
13049;DHT22;6591;51.446;5.404;2023-06-19T00:11:49;23.70;67.10
13049;DHT22;6591;51.446;5.404;2023-06-19T00:14:16;23.60;67.30
13049;DHT22;6591;51.446;5.404;2023-06-19T00:16:44;23.60;67.40
13049;DHT22;6591;51.446;5.404;2023-06-19T00:19:12;23.50;67.80
13049;DHT22;6591;51.446;5.404;2023-06-19T00:21:41;23.50;68.00
13049;DHT22;6591;51.446;5.404;2023-06-19T00:24:10;23.10;68.00
13049;DHT22;6591;51.446;5.404;2023-06-19T00:26:37;23.20;68.50
13049;DHT22;6591;51.446;5.404;2023-06-19T00:29:04;23.10;68.70
13049;DHT22;6591;51.446;5.404;2023-06-19T00:31:33;23.00;68.90
13049;DHT22;6591;51.446;5.404;2023-06-19T00:34:04;22.90;69.20
13049;DHT22;6591;51.446;5.404;2023-06-19T00:36:31;22.80;69.40
13049;DHT22;6591;51.446;5.404;2023-06-19T00:38:58;23.20;70.00
13049;DHT22;6591;51.446;5.404;2023-06-19T00:41:26;22.60;70.00
13049;DHT22;6591;51.446;5.404;2023-06-19T00:43:54;22.50;70.50
13049;DHT22;6591;51.446;5.404;2023-06-19T00:46:21;22.40;70.60
13049;DHT22;6591;51.446;5.404;2023-06-19T00:48:48;22.30;71.10
13049;DHT22;6591;51.446;5.404;2023-06-19T00:51:17;22.20;71.30
13049;DHT22;6591;51.446;5.404;2023-06-19T00:53:44;22.20;71.60
13049;DHT22;6591;51.446;5.404;2023-06-19T00:56:12;22.10;71.80
13049;DHT22;6591;51.446;5.404;2023-06-19T00:58:39;22.10;72.10
13049;DHT22;6591;51.446;5.404;2023-06-19T01:01:06;22.00;72.30
13049;DHT22;6591;51.446;5.404;2023-06-19T01:03:36;22.00;72.60
13049;DHT22;6591;51.446;5.404;2023-06-19T01:06:13;21.90;72.80
13049;DHT22;6591;51.446;5.404;2023-06-19T01:11:32;21.90;73.40
13049;DHT22;6591;51.446;5.404;2023-06-19T01:14:09;21.80;74.20
13049;DHT22;6591;51.446;5.404;2023-06-19T01:16:45;21.80;73.80
13049;DHT22;6591;51.446;5.404;2023-06-19T01:19:17;21.70;74.00
13049;DHT22;6591;51.446;5.404;2023-06-19T01:21:49;21.70;74.50
13049;DHT22;6591;51.446;5.404;2023-06-19T01:24:16;21.70;74.40
13049;DHT22;6591;51.446;5.404;2023-06-19T01:26:44;21.80;74.70
13049;DHT22;6591;51.446;5.404;2023-06-19T01:29:14;21.70;75.00
13049;DHT22;6591;51.446;5.404;2023-06-19T01:34:27;21.60;75.50
13049;DHT22;6591;51.446;5.404;2023-06-19T01:36:57;21.70;75.70
13049;DHT22;6591;51.446;5.404;2023-06-19T01:39:25;21.60;75.90
13049;DHT22;6591;51.446;5.404;2023-06-19T01:41:54;21.60;76.20
13049;DHT22;6591;51.446;5.404;2023-06-19T01:44:22;21.60;76.60
13049;DHT22;6591;51.446;5.404;2023-06-19T01:46:53;21.60;76.90
13049;DHT22;6591;51.446;5.404;2023-06-19T01:49:20;21.60;77.10
13049;DHT22;6591;51.446;5.404;2023-06-19T01:51:47;21.70;77.50
13049;DHT22;6591;51.446;5.404;2023-06-19T01:54:14;21.70;77.60
13049;DHT22;6591;51.446;5.404;2023-06-19T01:56:41;21.70;77.70
13049;DHT22;6591;51.446;5.404;2023-06-19T01:59:09;21.70;77.70
13049;DHT22;6591;51.446;5.404;2023-06-19T02:01:36;21.80;77.90
13049;DHT22;6591;51.446;5.404;2023-06-19T02:04:03;21.80;77.90
13049;DHT22;6591;51.446;5.404;2023-06-19T02:06:31;21.70;78.00
13049;DHT22;6591;51.446;5.404;2023-06-19T02:08:58;21.70;77.90
13049;DHT22;6591;51.446;5.404;2023-06-19T02:11:25;21.00;77.80
13049;DHT22;6591;51.446;5.404;2023-06-19T02:13:53;21.60;78.80
13049;DHT22;6591;51.446;5.404;2023-06-19T02:16:20;21.60;79.00
13049;DHT22;6591;51.446;5.404;2023-06-19T02:18:48;21.60;79.40
13049;DHT22;6591;51.446;5.404;2023-06-19T02:21:15;20.40;79.10
13049;DHT22;6591;51.446;5.404;2023-06-19T02:23:42;21.60;80.20
13049;DHT22;6591;51.446;5.404;2023-06-19T02:26:09;21.50;80.10
13049;DHT22;6591;51.446;5.404;2023-06-19T02:28:38;21.40;80.10
13049;DHT22;6591;51.446;5.404;2023-06-19T02:31:05;21.40;80.60
13049;DHT22;6591;51.446;5.404;2023-06-19T02:33:32;21.40;80.80
13049;DHT22;6591;51.446;5.404;2023-06-19T02:35:59;21.30;81.20
13049;DHT22;6591;51.446;5.404;2023-06-19T02:38:30;21.20;81.40
13049;DHT22;6591;51.446;5.404;2023-06-19T02:40:57;21.20;81.70
13049;DHT22;6591;51.446;5.404;2023-06-19T02:43:24;21.20;82.30
13049;DHT22;6591;51.446;5.404;2023-06-19T02:45:51;21.10;82.70
13049;DHT22;6591;51.446;5.404;2023-06-19T02:48:21;21.00;83.00
13049;DHT22;6591;51.446;5.404;2023-06-19T02:50:50;21.00;83.40
13049;DHT22;6591;51.446;5.404;2023-06-19T02:53:17;20.90;83.40
13049;DHT22;6591;51.446;5.404;2023-06-19T02:55:45;20.80;83.90
13049;DHT22;6591;51.446;5.404;2023-06-19T02:58:12;20.80;84.20
13049;DHT22;6591;51.446;5.404;2023-06-19T03:00:39;20.70;84.50
13049;DHT22;6591;51.446;5.404;2023-06-19T03:03:06;20.70;85.00
13049;DHT22;6591;51.446;5.404;2023-06-19T03:05:33;20.70;85.30
13049;DHT22;6591;51.446;5.404;2023-06-19T03:08:00;20.60;85.70
13049;DHT22;6591;51.446;5.404;2023-06-19T03:10:27;20.60;85.90
13049;DHT22;6591;51.446;5.404;2023-06-19T03:12:55;20.50;86.40
13049;DHT22;6591;51.446;5.404;2023-06-19T03:15:22;20.50;86.90
13049;DHT22;6591;51.446;5.404;2023-06-19T03:17:49;20.50;87.20
13049;DHT22;6591;51.446;5.404;2023-06-19T03:20:17;20.40;87.70
13049;DHT22;6591;51.446;5.404;2023-06-19T03:22:52;20.30;88.10
13049;DHT22;6591;51.446;5.404;2023-06-19T03:25:20;20.40;88.90
13049;DHT22;6591;51.446;5.404;2023-06-19T03:27:47;20.80;90.00
13049;DHT22;6591;51.446;5.404;2023-06-19T03:30:15;20.40;90.10
13049;DHT22;6591;51.446;5.404;2023-06-19T03:32:48;20.50;90.40
13049;DHT22;6591;51.446;5.404;2023-06-19T03:35:33;20.60;90.60
13049;DHT22;6591;51.446;5.404;2023-06-19T03:38:01;20.60;90.70
13049;DHT22;6591;51.446;5.404;2023-06-19T03:40:28;20.50;90.70
13049;DHT22;6591;51.446;5.404;2023-06-19T03:43:02;20.60;90.80
13049;DHT22;6591;51.446;5.404;2023-06-19T03:45:29;20.60;90.90
13049;DHT22;6591;51.446;5.404;2023-06-19T03:47:56;20.60;91.10
13049;DHT22;6591;51.446;5.404;2023-06-19T03:50:23;20.70;91.30
13049;DHT22;6591;51.446;5.404;2023-06-19T03:52:53;20.70;91.50
13049;DHT22;6591;51.446;5.404;2023-06-19T03:55:20;21.20;91.60
13049;DHT22;6591;51.446;5.404;2023-06-19T03:57:47;20.80;91.60
13049;DHT22;6591;51.446;5.404;2023-06-19T04:00:15;20.90;91.70
13049;DHT22;6591;51.446;5.404;2023-06-19T04:02:48;20.90;91.90
13049;DHT22;6591;51.446;5.404;2023-06-19T04:05:15;20.90;91.90
13049;DHT22;6591;51.446;5.404;2023-06-19T04:07:43;21.00;92.00
13049;DHT22;6591;51.446;5.404;2023-06-19T04:10:13;21.00;92.10
13049;DHT22;6591;51.446;5.404;2023-06-19T04:12:41;21.10;92.10
13049;DHT22;6591;51.446;5.404;2023-06-19T04:15:09;21.20;92.20
13049;DHT22;6591;51.446;5.404;2023-06-19T04:17:36;21.20;92.40
13049;DHT22;6591;51.446;5.404;2023-06-19T04:20:04;21.30;92.30
13049;DHT22;6591;51.446;5.404;2023-06-19T04:22:39;21.30;92.40
13049;DHT22;6591;51.446;5.404;2023-06-19T04:25:08;21.50;92.60
13049;DHT22;6591;51.446;5.404;2023-06-19T04:27:39;21.40;92.60
13049;DHT22;6591;51.446;5.404;2023-06-19T04:30:07;21.40;92.60
13049;DHT22;6591;51.446;5.404;2023-06-19T04:32:35;21.50;92.70
13049;DHT22;6591;51.446;5.404;2023-06-19T04:35:02;21.50;92.70
13049;DHT22;6591;51.446;5.404;2023-06-19T04:37:30;21.60;92.80
13049;DHT22;6591;51.446;5.404;2023-06-19T04:39:57;21.60;92.80
13049;DHT22;6591;51.446;5.404;2023-06-19T04:42:24;22.40;93.10
13049;DHT22;6591;51.446;5.404;2023-06-19T04:44:53;21.70;93.00
13049;DHT22;6591;51.446;5.404;2023-06-19T04:47:23;21.70;93.00
13049;DHT22;6591;51.446;5.404;2023-06-19T04:49:56;21.70;93.00
13049;DHT22;6591;51.446;5.404;2023-06-19T04:52:23;21.80;93.00
13049;DHT22;6591;51.446;5.404;2023-06-19T04:54:50;21.80;93.10
13049;DHT22;6591;51.446;5.404;2023-06-19T04:57:17;21.90;93.10
13049;DHT22;6591;51.446;5.404;2023-06-19T04:59:44;21.90;93.20
13049;DHT22;6591;51.446;5.404;2023-06-19T05:02:12;21.90;93.30
13049;DHT22;6591;51.446;5.404;2023-06-19T05:04:39;22.00;93.40
13049;DHT22;6591;51.446;5.404;2023-06-19T05:07:10;22.00;93.50
13049;DHT22;6591;51.446;5.404;2023-06-19T05:09:42;22.00;93.50
13049;DHT22;6591;51.446;5.404;2023-06-19T05:12:10;22.10;93.50
13049;DHT22;6591;51.446;5.404;2023-06-19T05:14:38;22.10;93.50
13049;DHT22;6591;51.446;5.404;2023-06-19T05:17:05;22.10;93.50
13049;DHT22;6591;51.446;5.404;2023-06-19T05:19:33;22.20;93.50
13049;DHT22;6591;51.446;5.404;2023-06-19T05:22:00;22.30;93.60
13049;DHT22;6591;51.446;5.404;2023-06-19T05:24:27;22.30;93.50
13049;DHT22;6591;51.446;5.404;2023-06-19T05:26:54;22.30;93.60
13049;DHT22;6591;51.446;5.404;2023-06-19T05:29:21;22.40;93.60
13049;DHT22;6591;51.446;5.404;2023-06-19T05:31:48;22.40;93.60
13049;DHT22;6591;51.446;5.404;2023-06-19T05:34:15;22.40;93.50
13049;DHT22;6591;51.446;5.404;2023-06-19T05:36:42;22.50;93.50
13049;DHT22;6591;51.446;5.404;2023-06-19T05:39:11;22.50;93.50
13049;DHT22;6591;51.446;5.404;2023-06-19T05:41:39;22.50;93.50
13049;DHT22;6591;51.446;5.404;2023-06-19T05:44:07;22.60;93.50
13049;DHT22;6591;51.446;5.404;2023-06-19T05:46:34;22.60;93.90
13049;DHT22;6591;51.446;5.404;2023-06-19T05:49:01;22.70;93.60
13049;DHT22;6591;51.446;5.404;2023-06-19T05:51:28;22.70;93.60
13049;DHT22;6591;51.446;5.404;2023-06-19T05:53:55;22.80;93.60
13049;DHT22;6591;51.446;5.404;2023-06-19T05:56:27;22.90;93.60
13049;DHT22;6591;51.446;5.404;2023-06-19T05:58:54;22.90;93.70
13049;DHT22;6591;51.446;5.404;2023-06-19T06:01:21;22.90;93.60
13049;DHT22;6591;51.446;5.404;2023-06-19T06:03:51;23.00;93.50
13049;DHT22;6591;51.446;5.404;2023-06-19T06:06:20;23.20;93.40
13049;DHT22;6591;51.446;5.404;2023-06-19T06:08:49;23.20;93.40
13049;DHT22;6591;51.446;5.404;2023-06-19T06:11:18;23.30;93.30
13049;DHT22;6591;51.446;5.404;2023-06-19T06:13:45;23.20;93.20
13049;DHT22;6591;51.446;5.404;2023-06-19T06:16:13;23.20;93.10
13049;DHT22;6591;51.446;5.404;2023-06-19T06:18:41;23.30;92.90
13049;DHT22;6591;51.446;5.404;2023-06-19T06:21:08;23.40;92.80
13049;DHT22;6591;51.446;5.404;2023-06-19T06:23:35;23.40;92.30
13049;DHT22;6591;51.446;5.404;2023-06-19T06:26:04;23.40;92.20
13049;DHT22;6591;51.446;5.404;2023-06-19T06:28:31;23.50;92.20
13049;DHT22;6591;51.446;5.404;2023-06-19T06:31:00;23.60;92.10
13049;DHT22;6591;51.446;5.404;2023-06-19T06:33:28;23.60;91.90
13049;DHT22;6591;51.446;5.404;2023-06-19T06:35:57;23.70;91.60
13049;DHT22;6591;51.446;5.404;2023-06-19T06:38:24;23.80;91.60
13049;DHT22;6591;51.446;5.404;2023-06-19T06:40:51;23.70;91.50
13049;DHT22;6591;51.446;5.404;2023-06-19T06:43:19;23.80;91.40
13049;DHT22;6591;51.446;5.404;2023-06-19T06:45:46;23.90;91.30
13049;DHT22;6591;51.446;5.404;2023-06-19T06:48:13;24.00;91.10
13049;DHT22;6591;51.446;5.404;2023-06-19T06:50:40;24.10;91.20
13049;DHT22;6591;51.446;5.404;2023-06-19T06:53:08;24.20;91.30
13049;DHT22;6591;51.446;5.404;2023-06-19T06:55:35;24.30;91.20
13049;DHT22;6591;51.446;5.404;2023-06-19T06:58:02;24.50;91.10
13049;DHT22;6591;51.446;5.404;2023-06-19T07:00:29;24.70;91.00
13049;DHT22;6591;51.446;5.404;2023-06-19T07:02:56;24.90;90.90
13049;DHT22;6591;51.446;5.404;2023-06-19T07:05:24;25.20;90.50
13049;DHT22;6591;51.446;5.404;2023-06-19T07:07:51;25.30;89.60
13049;DHT22;6591;51.446;5.404;2023-06-19T07:10:18;25.40;88.50
13049;DHT22;6591;51.446;5.404;2023-06-19T07:12:48;25.50;88.20
13049;DHT22;6591;51.446;5.404;2023-06-19T07:15:15;25.60;88.00
13049;DHT22;6591;51.446;5.404;2023-06-19T07:17:46;25.80;87.70
13049;DHT22;6591;51.446;5.404;2023-06-19T07:20:14;25.80;87.00
13049;DHT22;6591;51.446;5.404;2023-06-19T07:22:43;26.00;86.70
13049;DHT22;6591;51.446;5.404;2023-06-19T07:25:11;26.10;85.90
13049;DHT22;6591;51.446;5.404;2023-06-19T07:27:42;26.10;86.10
13049;DHT22;6591;51.446;5.404;2023-06-19T07:30:09;26.20;84.90
13049;DHT22;6591;51.446;5.404;2023-06-19T07:32:41;26.30;84.90
13049;DHT22;6591;51.446;5.404;2023-06-19T07:35:08;26.40;84.50
13049;DHT22;6591;51.446;5.404;2023-06-19T07:37:36;26.50;83.80
13049;DHT22;6591;51.446;5.404;2023-06-19T07:40:03;26.70;83.10
13049;DHT22;6591;51.446;5.404;2023-06-19T07:42:30;26.80;82.20
13049;DHT22;6591;51.446;5.404;2023-06-19T07:44:57;26.90;81.50
13049;DHT22;6591;51.446;5.404;2023-06-19T07:47:26;27.50;81.40
13049;DHT22;6591;51.446;5.404;2023-06-19T07:49:53;27.00;80.20
13049;DHT22;6591;51.446;5.404;2023-06-19T07:52:20;27.10;79.80
13049;DHT22;6591;51.446;5.404;2023-06-19T07:54:55;27.20;78.90
13049;DHT22;6591;51.446;5.404;2023-06-19T07:57:25;27.20;77.60
13049;DHT22;6591;51.446;5.404;2023-06-19T07:59:54;27.30;77.20
13049;DHT22;6591;51.446;5.404;2023-06-19T08:02:21;27.30;77.20
13049;DHT22;6591;51.446;5.404;2023-06-19T08:04:49;27.30;77.00
13049;DHT22;6591;51.446;5.404;2023-06-19T08:07:16;27.30;76.70
13049;DHT22;6591;51.446;5.404;2023-06-19T08:09:43;27.30;76.90
13049;DHT22;6591;51.446;5.404;2023-06-19T08:12:14;27.30;76.60
13049;DHT22;6591;51.446;5.404;2023-06-19T08:14:41;27.40;76.90
13049;DHT22;6591;51.446;5.404;2023-06-19T08:17:08;27.50;77.30
13049;DHT22;6591;51.446;5.404;2023-06-19T08:19:35;27.60;77.50
13049;DHT22;6591;51.446;5.404;2023-06-19T08:22:03;27.90;76.90
13049;DHT22;6591;51.446;5.404;2023-06-19T08:24:30;28.10;76.10
13049;DHT22;6591;51.446;5.404;2023-06-19T08:26:57;28.40;75.40
13049;DHT22;6591;51.446;5.404;2023-06-19T08:29:25;28.60;74.60
13049;DHT22;6591;51.446;5.404;2023-06-19T08:31:52;28.80;73.90
13049;DHT22;6591;51.446;5.404;2023-06-19T08:34:19;29.10;73.60
13049;DHT22;6591;51.446;5.404;2023-06-19T08:36:46;29.40;73.00
13049;DHT22;6591;51.446;5.404;2023-06-19T08:39:13;29.60;71.70
13049;DHT22;6591;51.446;5.404;2023-06-19T08:41:40;29.70;70.70
13049;DHT22;6591;51.446;5.404;2023-06-19T08:44:08;29.80;69.80
13049;DHT22;6591;51.446;5.404;2023-06-19T08:46:36;29.80;69.50
13049;DHT22;6591;51.446;5.404;2023-06-19T08:49:08;29.80;69.20
13049;DHT22;6591;51.446;5.404;2023-06-19T08:51:37;29.80;69.00
13049;DHT22;6591;51.446;5.404;2023-06-19T08:54:07;29.90;68.70
13049;DHT22;6591;51.446;5.404;2023-06-19T08:56:38;30.00;68.40
13049;DHT22;6591;51.446;5.404;2023-06-19T08:59:25;30.10;68.00
13049;DHT22;6591;51.446;5.404;2023-06-19T09:01:55;30.20;66.20
13049;DHT22;6591;51.446;5.404;2023-06-19T09:04:28;30.20;66.90
13049;DHT22;6591;51.446;5.404;2023-06-19T09:06:59;30.40;66.70
13049;DHT22;6591;51.446;5.404;2023-06-19T09:09:45;30.50;66.30
13049;DHT22;6591;51.446;5.404;2023-06-19T09:12:14;30.60;65.30
13049;DHT22;6591;51.446;5.404;2023-06-19T09:14:45;30.80;65.10
13049;DHT22;6591;51.446;5.404;2023-06-19T09:17:17;30.80;64.40
13049;DHT22;6591;51.446;5.404;2023-06-19T09:19:50;31.00;63.40
13049;DHT22;6591;51.446;5.404;2023-06-19T09:22:21;31.10;63.20
13049;DHT22;6591;51.446;5.404;2023-06-19T09:24:49;31.20;62.80
13049;DHT22;6591;51.446;5.404;2023-06-19T09:27:19;31.40;62.60
13049;DHT22;6591;51.446;5.404;2023-06-19T09:29:49;31.50;62.50
13049;DHT22;6591;51.446;5.404;2023-06-19T09:32:27;31.60;61.90
13049;DHT22;6591;51.446;5.404;2023-06-19T09:34:57;31.90;60.50
13049;DHT22;6591;51.446;5.404;2023-06-19T09:37:30;32.10;60.60
13049;DHT22;6591;51.446;5.404;2023-06-19T09:40:03;32.20;60.00
13049;DHT22;6591;51.446;5.404;2023-06-19T09:42:40;32.30;59.20
13049;DHT22;6591;51.446;5.404;2023-06-19T09:45:18;32.30;59.30
13049;DHT22;6591;51.446;5.404;2023-06-19T09:47:52;32.40;58.90
13049;DHT22;6591;51.446;5.404;2023-06-19T09:50:28;32.60;58.40
13049;DHT22;6591;51.446;5.404;2023-06-19T09:52:57;32.60;58.00
13049;DHT22;6591;51.446;5.404;2023-06-19T09:55:24;32.60;57.50
13049;DHT22;6591;51.446;5.404;2023-06-19T09:57:56;32.50;57.20
13049;DHT22;6591;51.446;5.404;2023-06-19T10:00:24;32.30;57.00
13049;DHT22;6591;51.446;5.404;2023-06-19T10:02:58;32.20;57.20
13049;DHT22;6591;51.446;5.404;2023-06-19T10:05:31;32.10;57.00
13049;DHT22;6591;51.446;5.404;2023-06-19T10:07:58;32.00;57.20
13049;DHT22;6591;51.446;5.404;2023-06-19T10:10:28;31.90;57.40
13049;DHT22;6591;51.446;5.404;2023-06-19T10:13:21;31.80;57.40
13049;DHT22;6591;51.446;5.404;2023-06-19T10:15:47;31.80;57.60
13049;DHT22;6591;51.446;5.404;2023-06-19T10:18:16;31.80;57.90
13049;DHT22;6591;51.446;5.404;2023-06-19T10:20:45;31.80;58.10
13049;DHT22;6591;51.446;5.404;2023-06-19T10:23:16;32.00;58.00
13049;DHT22;6591;51.446;5.404;2023-06-19T10:25:48;32.20;57.70
13049;DHT22;6591;51.446;5.404;2023-06-19T10:28:25;32.40;57.90
13049;DHT22;6591;51.446;5.404;2023-06-19T10:31:06;32.60;57.60
13049;DHT22;6591;51.446;5.404;2023-06-19T10:33:36;32.70;56.90
13049;DHT22;6591;51.446;5.404;2023-06-19T10:36:27;32.90;56.70
13049;DHT22;6591;51.446;5.404;2023-06-19T10:38:54;33.10;55.80
13049;DHT22;6591;51.446;5.404;2023-06-19T10:41:23;33.20;56.40
13049;DHT22;6591;51.446;5.404;2023-06-19T10:44:05;33.30;56.00
13049;DHT22;6591;51.446;5.404;2023-06-19T10:46:39;33.50;55.10
13049;DHT22;6591;51.446;5.404;2023-06-19T10:49:08;33.60;55.30
13049;DHT22;6591;51.446;5.404;2023-06-19T10:51:38;33.60;54.90
13049;DHT22;6591;51.446;5.404;2023-06-19T10:54:06;33.70;54.70
13049;DHT22;6591;51.446;5.404;2023-06-19T10:56:34;33.80;54.60
13049;DHT22;6591;51.446;5.404;2023-06-19T10:59:04;33.80;53.90
13049;DHT22;6591;51.446;5.404;2023-06-19T11:01:33;33.70;53.40
13049;DHT22;6591;51.446;5.404;2023-06-19T11:04:09;33.60;53.50
13049;DHT22;6591;51.446;5.404;2023-06-19T11:06:38;33.50;53.80
13049;DHT22;6591;51.446;5.404;2023-06-19T11:09:07;33.50;54.00
13049;DHT22;6591;51.446;5.404;2023-06-19T11:11:40;33.50;53.80
13049;DHT22;6591;51.446;5.404;2023-06-19T11:14:13;33.50;53.40
13049;DHT22;6591;51.446;5.404;2023-06-19T11:16:44;33.60;53.30
13049;DHT22;6591;51.446;5.404;2023-06-19T11:19:20;33.70;53.00
13049;DHT22;6591;51.446;5.404;2023-06-19T11:21:51;33.90;52.10
13049;DHT22;6591;51.446;5.404;2023-06-19T11:24:19;34.00;52.70
13049;DHT22;6591;51.446;5.404;2023-06-19T11:26:49;34.10;52.30
13049;DHT22;6591;51.446;5.404;2023-06-19T11:29:20;34.20;51.90
13049;DHT22;6591;51.446;5.404;2023-06-19T11:31:50;34.30;51.80
13049;DHT22;6591;51.446;5.404;2023-06-19T11:34:31;34.40;51.30
13049;DHT22;6591;51.446;5.404;2023-06-19T11:37:00;34.60;50.90
13049;DHT22;6591;51.446;5.404;2023-06-19T11:39:28;34.80;51.10
13049;DHT22;6591;51.446;5.404;2023-06-19T11:41:58;35.00;50.40
13049;DHT22;6591;51.446;5.404;2023-06-19T11:44:27;35.10;50.00
13049;DHT22;6591;51.446;5.404;2023-06-19T11:46:58;35.30;50.20
13049;DHT22;6591;51.446;5.404;2023-06-19T11:49:35;35.40;49.40
13049;DHT22;6591;51.446;5.404;2023-06-19T11:52:02;35.40;49.00
13049;DHT22;6591;51.446;5.404;2023-06-19T11:54:30;35.40;49.20
13049;DHT22;6591;51.446;5.404;2023-06-19T11:56:57;35.50;49.10
13049;DHT22;6591;51.446;5.404;2023-06-19T11:59:24;35.60;48.70
13049;DHT22;6591;51.446;5.404;2023-06-19T12:01:51;35.70;48.60
13049;DHT22;6591;51.446;5.404;2023-06-19T12:04:18;35.80;49.30
13049;DHT22;6591;51.446;5.404;2023-06-19T12:06:45;35.90;48.60
13049;DHT22;6591;51.446;5.404;2023-06-19T12:09:13;36.10;48.40
13049;DHT22;6591;51.446;5.404;2023-06-19T12:11:40;36.30;48.30
13049;DHT22;6591;51.446;5.404;2023-06-19T12:14:07;36.50;48.50
13049;DHT22;6591;51.446;5.404;2023-06-19T12:16:35;36.80;47.50
13049;DHT22;6591;51.446;5.404;2023-06-19T12:19:02;37.00;47.00
13049;DHT22;6591;51.446;5.404;2023-06-19T12:21:29;37.20;46.80
13049;DHT22;6591;51.446;5.404;2023-06-19T12:24:05;37.40;46.30
13049;DHT22;6591;51.446;5.404;2023-06-19T12:26:34;37.50;46.10
13049;DHT22;6591;51.446;5.404;2023-06-19T12:29:04;37.50;45.70
13049;DHT22;6591;51.446;5.404;2023-06-19T12:31:32;37.50;45.40
13049;DHT22;6591;51.446;5.404;2023-06-19T12:34:00;37.60;45.00
13049;DHT22;6591;51.446;5.404;2023-06-19T12:36:46;37.60;44.40
13049;DHT22;6591;51.446;5.404;2023-06-19T12:39:14;37.70;43.90
13049;DHT22;6591;51.446;5.404;2023-06-19T12:41:43;37.80;43.50
13049;DHT22;6591;51.446;5.404;2023-06-19T12:44:10;37.90;43.20
13049;DHT22;6591;51.446;5.404;2023-06-19T12:46:38;37.90;42.90
13049;DHT22;6591;51.446;5.404;2023-06-19T12:49:06;37.90;42.80
13049;DHT22;6591;51.446;5.404;2023-06-19T12:51:34;37.80;42.80
13049;DHT22;6591;51.446;5.404;2023-06-19T12:54:01;37.90;43.00
13049;DHT22;6591;51.446;5.404;2023-06-19T12:56:29;38.00;43.10
13049;DHT22;6591;51.446;5.404;2023-06-19T12:58:56;38.10;42.70
13049;DHT22;6591;51.446;5.404;2023-06-19T13:01:23;38.20;42.00
13049;DHT22;6591;51.446;5.404;2023-06-19T13:03:51;38.20;41.50
13049;DHT22;6591;51.446;5.404;2023-06-19T13:06:19;38.20;41.20
13049;DHT22;6591;51.446;5.404;2023-06-19T13:08:46;38.20;41.00
13049;DHT22;6591;51.446;5.404;2023-06-19T13:11:13;38.30;40.50
13049;DHT22;6591;51.446;5.404;2023-06-19T13:13:40;38.40;40.10
13049;DHT22;6591;51.446;5.404;2023-06-19T13:16:07;38.60;40.20
13049;DHT22;6591;51.446;5.404;2023-06-19T13:18:40;38.70;40.20
13049;DHT22;6591;51.446;5.404;2023-06-19T13:21:07;38.90;40.60
13049;DHT22;6591;51.446;5.404;2023-06-19T13:23:34;39.00;40.30
13049;DHT22;6591;51.446;5.404;2023-06-19T13:26:01;39.20;40.00
13049;DHT22;6591;51.446;5.404;2023-06-19T13:28:28;39.40;40.00
13049;DHT22;6591;51.446;5.404;2023-06-19T13:30:55;39.60;39.90
13049;DHT22;6591;51.446;5.404;2023-06-19T13:33:23;39.80;39.50
13049;DHT22;6591;51.446;5.404;2023-06-19T13:35:50;40.00;39.30
13049;DHT22;6591;51.446;5.404;2023-06-19T13:38:17;40.20;38.50
13049;DHT22;6591;51.446;5.404;2023-06-19T13:40:44;40.30;38.20
13049;DHT22;6591;51.446;5.404;2023-06-19T13:43:11;40.30;37.90
13049;DHT22;6591;51.446;5.404;2023-06-19T13:45:38;40.20;37.80
13049;DHT22;6591;51.446;5.404;2023-06-19T13:48:06;40.10;37.70
13049;DHT22;6591;51.446;5.404;2023-06-19T13:50:33;40.00;37.50
13049;DHT22;6591;51.446;5.404;2023-06-19T13:53:01;39.90;37.60
13049;DHT22;6591;51.446;5.404;2023-06-19T13:55:28;39.80;38.50
13049;DHT22;6591;51.446;5.404;2023-06-19T13:57:55;39.90;37.80
13049;DHT22;6591;51.446;5.404;2023-06-19T14:00:22;40.00;38.10
13049;DHT22;6591;51.446;5.404;2023-06-19T14:02:49;40.20;37.70
13049;DHT22;6591;51.446;5.404;2023-06-19T14:05:17;40.30;37.50
13049;DHT22;6591;51.446;5.404;2023-06-19T14:07:44;40.50;37.60
13049;DHT22;6591;51.446;5.404;2023-06-19T14:10:11;40.70;37.40
13049;DHT22;6591;51.446;5.404;2023-06-19T14:12:39;40.90;37.20
13049;DHT22;6591;51.446;5.404;2023-06-19T14:15:06;41.10;36.90
13049;DHT22;6591;51.446;5.404;2023-06-19T14:17:35;41.30;36.80
13049;DHT22;6591;51.446;5.404;2023-06-19T14:20:03;41.60;36.80
13049;DHT22;6591;51.446;5.404;2023-06-19T14:22:31;41.80;36.40
13049;DHT22;6591;51.446;5.404;2023-06-19T14:24:58;41.90;35.90
13049;DHT22;6591;51.446;5.404;2023-06-19T14:27:28;42.00;35.70
13049;DHT22;6591;51.446;5.404;2023-06-19T14:29:55;42.00;35.40
13049;DHT22;6591;51.446;5.404;2023-06-19T14:32:23;41.90;35.80
13049;DHT22;6591;51.446;5.404;2023-06-19T14:34:51;41.90;35.90
13049;DHT22;6591;51.446;5.404;2023-06-19T14:37:19;41.90;35.30
13049;DHT22;6591;51.446;5.404;2023-06-19T14:39:47;41.90;35.10
13049;DHT22;6591;51.446;5.404;2023-06-19T14:42:14;41.80;35.10
13049;DHT22;6591;51.446;5.404;2023-06-19T14:44:41;41.80;35.00
13049;DHT22;6591;51.446;5.404;2023-06-19T14:47:08;41.70;35.40
13049;DHT22;6591;51.446;5.404;2023-06-19T14:49:35;41.70;34.80
13049;DHT22;6591;51.446;5.404;2023-06-19T14:52:03;41.60;34.90
13049;DHT22;6591;51.446;5.404;2023-06-19T14:54:30;41.50;35.00
13049;DHT22;6591;51.446;5.404;2023-06-19T14:56:57;41.50;35.00
13049;DHT22;6591;51.446;5.404;2023-06-19T14:59:25;41.50;35.10
13049;DHT22;6591;51.446;5.404;2023-06-19T15:01:52;41.50;35.10
13049;DHT22;6591;51.446;5.404;2023-06-19T15:04:19;41.40;35.00
13049;DHT22;6591;51.446;5.404;2023-06-19T15:06:46;41.50;34.80
13049;DHT22;6591;51.446;5.404;2023-06-19T15:09:13;41.60;34.90
13049;DHT22;6591;51.446;5.404;2023-06-19T15:11:40;41.70;35.10
13049;DHT22;6591;51.446;5.404;2023-06-19T15:14:08;41.90;35.30
13049;DHT22;6591;51.446;5.404;2023-06-19T15:16:35;42.10;34.90
13049;DHT22;6591;51.446;5.404;2023-06-19T15:19:03;42.20;34.70
13049;DHT22;6591;51.446;5.404;2023-06-19T15:21:31;42.40;34.60
13049;DHT22;6591;51.446;5.404;2023-06-19T15:23:58;42.60;34.50
13049;DHT22;6591;51.446;5.404;2023-06-19T15:26:25;42.80;34.00
13049;DHT22;6591;51.446;5.404;2023-06-19T15:28:52;42.80;33.70
13049;DHT22;6591;51.446;5.404;2023-06-19T15:31:23;42.80;33.50
13049;DHT22;6591;51.446;5.404;2023-06-19T15:33:50;42.60;33.40
13049;DHT22;6591;51.446;5.404;2023-06-19T15:36:17;42.40;33.80
13049;DHT22;6591;51.446;5.404;2023-06-19T15:38:44;42.40;33.90
13049;DHT22;6591;51.446;5.404;2023-06-19T15:41:12;42.40;33.80
13049;DHT22;6591;51.446;5.404;2023-06-19T15:43:41;42.40;33.70
13049;DHT22;6591;51.446;5.404;2023-06-19T15:46:08;42.40;33.70
13049;DHT22;6591;51.446;5.404;2023-06-19T15:48:36;42.30;33.30
13049;DHT22;6591;51.446;5.404;2023-06-19T15:51:03;42.10;33.40
13049;DHT22;6591;51.446;5.404;2023-06-19T15:53:30;41.90;33.40
13049;DHT22;6591;51.446;5.404;2023-06-19T15:55:58;41.80;33.70
13049;DHT22;6591;51.446;5.404;2023-06-19T15:58:25;41.60;33.70
13049;DHT22;6591;51.446;5.404;2023-06-19T16:00:53;41.50;33.70